sensor_id;sensor_type;location;lat;lon;timestamp;P1;durP1;ratioP1;P2;durP2;ratioP2
33160;SDS011;19522;45.656;11.302;2023-05-07T00:00:23;13.68;;;11.32;;
33160;SDS011;19522;45.656;11.302;2023-05-07T00:02:48;13.30;;;10.95;;
33160;SDS011;19522;45.656;11.302;2023-05-07T00:05:16;13.35;;;11.80;;
33160;SDS011;19522;45.656;11.302;2023-05-07T00:07:42;12.35;;;10.60;;
33160;SDS011;19522;45.656;11.302;2023-05-07T00:10:08;13.05;;;10.65;;
33160;SDS011;19522;45.656;11.302;2023-05-07T00:12:33;12.25;;;10.82;;
33160;SDS011;19522;45.656;11.302;2023-05-07T00:15:00;14.80;;;11.30;;
33160;SDS011;19522;45.656;11.302;2023-05-07T00:17:26;13.38;;;10.60;;
33160;SDS011;19522;45.656;11.302;2023-05-07T00:19:52;14.00;;;11.13;;
33160;SDS011;19522;45.656;11.302;2023-05-07T00:22:17;13.68;;;11.27;;
33160;SDS011;19522;45.656;11.302;2023-05-07T00:24:42;15.90;;;12.73;;
33160;SDS011;19522;45.656;11.302;2023-05-07T00:27:08;14.32;;;12.68;;
33160;SDS011;19522;45.656;11.302;2023-05-07T00:29:33;15.30;;;12.30;;
33160;SDS011;19522;45.656;11.302;2023-05-07T00:31:59;14.32;;;12.13;;
33160;SDS011;19522;45.656;11.302;2023-05-07T00:34:24;14.40;;;11.85;;
33160;SDS011;19522;45.656;11.302;2023-05-07T00:36:50;14.63;;;11.20;;
33160;SDS011;19522;45.656;11.302;2023-05-07T00:39:15;13.20;;;11.80;;
33160;SDS011;19522;45.656;11.302;2023-05-07T00:41:41;14.32;;;11.98;;
33160;SDS011;19522;45.656;11.302;2023-05-07T00:44:06;13.20;;;11.60;;
33160;SDS011;19522;45.656;11.302;2023-05-07T00:46:32;14.80;;;12.68;;
33160;SDS011;19522;45.656;11.302;2023-05-07T00:48:58;14.05;;;11.57;;
33160;SDS011;19522;45.656;11.302;2023-05-07T00:51:25;16.05;;;12.35;;
33160;SDS011;19522;45.656;11.302;2023-05-07T00:53:54;12.70;;;11.38;;
33160;SDS011;19522;45.656;11.302;2023-05-07T00:56:20;14.77;;;11.30;;
33160;SDS011;19522;45.656;11.302;2023-05-07T00:58:46;14.02;;;11.80;;
33160;SDS011;19522;45.656;11.302;2023-05-07T01:01:12;13.65;;;11.95;;
33160;SDS011;19522;45.656;11.302;2023-05-07T01:03:41;14.32;;;12.73;;
33160;SDS011;19522;45.656;11.302;2023-05-07T01:06:07;15.55;;;12.70;;
33160;SDS011;19522;45.656;11.302;2023-05-07T01:08:37;15.23;;;12.68;;
33160;SDS011;19522;45.656;11.302;2023-05-07T01:11:04;15.75;;;13.13;;
33160;SDS011;19522;45.656;11.302;2023-05-07T01:13:31;14.98;;;12.30;;
33160;SDS011;19522;45.656;11.302;2023-05-07T01:15:58;15.48;;;12.18;;
33160;SDS011;19522;45.656;11.302;2023-05-07T01:18:23;15.07;;;12.07;;
33160;SDS011;19522;45.656;11.302;2023-05-07T01:20:51;14.75;;;13.15;;
33160;SDS011;19522;45.656;11.302;2023-05-07T01:23:16;15.95;;;13.43;;
33160;SDS011;19522;45.656;11.302;2023-05-07T01:25:42;17.50;;;13.55;;
33160;SDS011;19522;45.656;11.302;2023-05-07T01:28:08;15.48;;;13.10;;
33160;SDS011;19522;45.656;11.302;2023-05-07T01:30:33;13.90;;;12.02;;
33160;SDS011;19522;45.656;11.302;2023-05-07T01:33:04;13.85;;;12.40;;
33160;SDS011;19522;45.656;11.302;2023-05-07T01:35:40;14.98;;;12.32;;
33160;SDS011;19522;45.656;11.302;2023-05-07T01:38:10;14.82;;;13.20;;
33160;SDS011;19522;45.656;11.302;2023-05-07T01:40:37;14.88;;;12.93;;
33160;SDS011;19522;45.656;11.302;2023-05-07T01:43:03;16.85;;;12.73;;
33160;SDS011;19522;45.656;11.302;2023-05-07T01:45:30;13.55;;;11.73;;
33160;SDS011;19522;45.656;11.302;2023-05-07T01:47:57;13.60;;;10.98;;
33160;SDS011;19522;45.656;11.302;2023-05-07T01:50:23;17.40;;;11.80;;
33160;SDS011;19522;45.656;11.302;2023-05-07T01:52:50;14.02;;;11.32;;
33160;SDS011;19522;45.656;11.302;2023-05-07T01:55:17;11.50;;;10.27;;
33160;SDS011;19522;45.656;11.302;2023-05-07T01:57:42;16.20;;;11.20;;
33160;SDS011;19522;45.656;11.302;2023-05-07T02:00:08;14.93;;;12.05;;
33160;SDS011;19522;45.656;11.302;2023-05-07T02:02:34;13.68;;;11.73;;
33160;SDS011;19522;45.656;11.302;2023-05-07T02:05:00;13.90;;;12.23;;
33160;SDS011;19522;45.656;11.302;2023-05-07T02:07:29;13.90;;;12.50;;
33160;SDS011;19522;45.656;11.302;2023-05-07T02:09:58;14.95;;;11.93;;
33160;SDS011;19522;45.656;11.302;2023-05-07T02:12:23;13.38;;;11.80;;
33160;SDS011;19522;45.656;11.302;2023-05-07T02:14:49;16.08;;;12.75;;
33160;SDS011;19522;45.656;11.302;2023-05-07T02:17:14;15.50;;;13.15;;
33160;SDS011;19522;45.656;11.302;2023-05-07T02:19:40;17.05;;;13.30;;
33160;SDS011;19522;45.656;11.302;2023-05-07T02:22:06;14.95;;;13.13;;
33160;SDS011;19522;45.656;11.302;2023-05-07T02:24:32;19.73;;;13.93;;
33160;SDS011;19522;45.656;11.302;2023-05-07T02:26:58;15.80;;;13.60;;
33160;SDS011;19522;45.656;11.302;2023-05-07T02:29:23;15.68;;;13.30;;
33160;SDS011;19522;45.656;11.302;2023-05-07T02:31:48;17.15;;;13.40;;
33160;SDS011;19522;45.656;11.302;2023-05-07T02:34:16;14.02;;;12.48;;
33160;SDS011;19522;45.656;11.302;2023-05-07T02:36:42;14.90;;;12.57;;
33160;SDS011;19522;45.656;11.302;2023-05-07T02:39:08;14.32;;;11.95;;
33160;SDS011;19522;45.656;11.302;2023-05-07T02:41:33;14.65;;;12.57;;
33160;SDS011;19522;45.656;11.302;2023-05-07T02:43:59;15.43;;;12.80;;
33160;SDS011;19522;45.656;11.302;2023-05-07T02:46:25;16.20;;;12.20;;
33160;SDS011;19522;45.656;11.302;2023-05-07T02:48:50;15.10;;;13.07;;
33160;SDS011;19522;45.656;11.302;2023-05-07T02:51:19;13.98;;;12.48;;
33160;SDS011;19522;45.656;11.302;2023-05-07T02:53:45;15.73;;;12.85;;
33160;SDS011;19522;45.656;11.302;2023-05-07T02:56:11;14.35;;;12.13;;
33160;SDS011;19522;45.656;11.302;2023-05-07T02:58:36;15.10;;;13.27;;
33160;SDS011;19522;45.656;11.302;2023-05-07T03:01:01;14.88;;;12.88;;
33160;SDS011;19522;45.656;11.302;2023-05-07T03:03:27;17.88;;;13.82;;
33160;SDS011;19522;45.656;11.302;2023-05-07T03:05:52;15.25;;;12.68;;
33160;SDS011;19522;45.656;11.302;2023-05-07T03:08:21;15.48;;;12.75;;
33160;SDS011;19522;45.656;11.302;2023-05-07T03:10:47;16.55;;;12.15;;
33160;SDS011;19522;45.656;11.302;2023-05-07T03:13:13;14.05;;;12.60;;
33160;SDS011;19522;45.656;11.302;2023-05-07T03:15:41;17.08;;;13.48;;
33160;SDS011;19522;45.656;11.302;2023-05-07T03:18:06;16.80;;;13.98;;
33160;SDS011;19522;45.656;11.302;2023-05-07T03:20:32;15.15;;;12.45;;
33160;SDS011;19522;45.656;11.302;2023-05-07T03:22:57;14.60;;;12.82;;
33160;SDS011;19522;45.656;11.302;2023-05-07T03:25:23;13.57;;;12.15;;
33160;SDS011;19522;45.656;11.302;2023-05-07T03:27:49;14.88;;;13.30;;
33160;SDS011;19522;45.656;11.302;2023-05-07T03:30:14;15.77;;;12.73;;
33160;SDS011;19522;45.656;11.302;2023-05-07T03:32:40;15.63;;;13.38;;
33160;SDS011;19522;45.656;11.302;2023-05-07T03:35:05;15.20;;;13.35;;
33160;SDS011;19522;45.656;11.302;2023-05-07T03:37:31;15.98;;;13.25;;
33160;SDS011;19522;45.656;11.302;2023-05-07T03:39:56;16.48;;;14.52;;
33160;SDS011;19522;45.656;11.302;2023-05-07T03:42:22;14.85;;;13.20;;
33160;SDS011;19522;45.656;11.302;2023-05-07T03:44:47;15.35;;;13.75;;
33160;SDS011;19522;45.656;11.302;2023-05-07T03:47:13;17.65;;;14.07;;
33160;SDS011;19522;45.656;11.302;2023-05-07T03:49:39;15.57;;;13.82;;
33160;SDS011;19522;45.656;11.302;2023-05-07T03:52:05;14.48;;;12.90;;
33160;SDS011;19522;45.656;11.302;2023-05-07T03:54:31;18.70;;;14.43;;
33160;SDS011;19522;45.656;11.302;2023-05-07T03:56:56;16.05;;;13.77;;
33160;SDS011;19522;45.656;11.302;2023-05-07T03:59:22;15.80;;;13.60;;
33160;SDS011;19522;45.656;11.302;2023-05-07T04:01:47;16.13;;;12.75;;
33160;SDS011;19522;45.656;11.302;2023-05-07T04:04:14;16.60;;;14.43;;
33160;SDS011;19522;45.656;11.302;2023-05-07T04:06:39;13.60;;;12.20;;
33160;SDS011;19522;45.656;11.302;2023-05-07T04:09:06;17.33;;;12.40;;
33160;SDS011;19522;45.656;11.302;2023-05-07T04:11:31;15.45;;;13.15;;
33160;SDS011;19522;45.656;11.302;2023-05-07T04:13:57;14.55;;;13.05;;
33160;SDS011;19522;45.656;11.302;2023-05-07T04:16:23;15.40;;;13.10;;
33160;SDS011;19522;45.656;11.302;2023-05-07T04:18:48;15.65;;;13.98;;
33160;SDS011;19522;45.656;11.302;2023-05-07T04:21:14;15.73;;;13.55;;
33160;SDS011;19522;45.656;11.302;2023-05-07T04:23:41;14.25;;;12.63;;
33160;SDS011;19522;45.656;11.302;2023-05-07T04:26:09;15.52;;;12.90;;
33160;SDS011;19522;45.656;11.302;2023-05-07T04:28:35;15.85;;;13.23;;
33160;SDS011;19522;45.656;11.302;2023-05-07T04:31:01;17.02;;;14.95;;
33160;SDS011;19522;45.656;11.302;2023-05-07T04:33:26;17.27;;;15.00;;
33160;SDS011;19522;45.656;11.302;2023-05-07T04:35:52;16.35;;;14.18;;
33160;SDS011;19522;45.656;11.302;2023-05-07T04:38:17;17.23;;;14.27;;
33160;SDS011;19522;45.656;11.302;2023-05-07T04:40:43;15.70;;;14.02;;
33160;SDS011;19522;45.656;11.302;2023-05-07T04:43:12;16.00;;;13.70;;
33160;SDS011;19522;45.656;11.302;2023-05-07T04:45:38;15.13;;;13.63;;
33160;SDS011;19522;45.656;11.302;2023-05-07T04:48:06;16.38;;;13.93;;
33160;SDS011;19522;45.656;11.302;2023-05-07T04:50:32;16.52;;;13.77;;
33160;SDS011;19522;45.656;11.302;2023-05-07T04:52:57;14.80;;;13.20;;
33160;SDS011;19522;45.656;11.302;2023-05-07T04:55:26;15.23;;;13.45;;
33160;SDS011;19522;45.656;11.302;2023-05-07T04:57:51;17.67;;;13.98;;
33160;SDS011;19522;45.656;11.302;2023-05-07T05:00:18;15.88;;;13.48;;
33160;SDS011;19522;45.656;11.302;2023-05-07T05:02:44;16.25;;;13.68;;
33160;SDS011;19522;45.656;11.302;2023-05-07T05:05:10;18.25;;;15.10;;
33160;SDS011;19522;45.656;11.302;2023-05-07T05:07:36;15.75;;;13.73;;
33160;SDS011;19522;45.656;11.302;2023-05-07T05:10:02;15.60;;;13.90;;
33160;SDS011;19522;45.656;11.302;2023-05-07T05:12:31;15.65;;;13.27;;
33160;SDS011;19522;45.656;11.302;2023-05-07T05:14:56;16.05;;;13.90;;
33160;SDS011;19522;45.656;11.302;2023-05-07T05:17:22;13.93;;;12.50;;
33160;SDS011;19522;45.656;11.302;2023-05-07T05:19:48;18.20;;;14.32;;
33160;SDS011;19522;45.656;11.302;2023-05-07T05:22:13;14.70;;;13.10;;
33160;SDS011;19522;45.656;11.302;2023-05-07T05:24:39;14.27;;;12.45;;
33160;SDS011;19522;45.656;11.302;2023-05-07T05:27:05;16.15;;;13.18;;
33160;SDS011;19522;45.656;11.302;2023-05-07T05:29:30;17.05;;;14.00;;
33160;SDS011;19522;45.656;11.302;2023-05-07T05:31:56;13.55;;;11.98;;
33160;SDS011;19522;45.656;11.302;2023-05-07T05:34:22;14.32;;;12.15;;
33160;SDS011;19522;45.656;11.302;2023-05-07T05:36:48;14.88;;;12.68;;
33160;SDS011;19522;45.656;11.302;2023-05-07T05:39:16;13.73;;;12.27;;
33160;SDS011;19522;45.656;11.302;2023-05-07T05:41:42;14.52;;;12.73;;
33160;SDS011;19522;45.656;11.302;2023-05-07T05:44:11;17.40;;;13.65;;
33160;SDS011;19522;45.656;11.302;2023-05-07T05:46:36;14.80;;;13.10;;
33160;SDS011;19522;45.656;11.302;2023-05-07T05:49:02;15.10;;;13.15;;
33160;SDS011;19522;45.656;11.302;2023-05-07T05:51:27;15.05;;;13.63;;
33160;SDS011;19522;45.656;11.302;2023-05-07T05:53:52;15.65;;;13.98;;
33160;SDS011;19522;45.656;11.302;2023-05-07T05:56:18;13.93;;;12.48;;
33160;SDS011;19522;45.656;11.302;2023-05-07T05:58:44;15.30;;;12.27;;
33160;SDS011;19522;45.656;11.302;2023-05-07T06:01:10;13.13;;;11.75;;
33160;SDS011;19522;45.656;11.302;2023-05-07T06:03:37;13.52;;;12.18;;
33160;SDS011;19522;45.656;11.302;2023-05-07T06:06:02;15.38;;;13.05;;
33160;SDS011;19522;45.656;11.302;2023-05-07T06:08:31;16.83;;;13.63;;
33160;SDS011;19522;45.656;11.302;2023-05-07T06:10:59;16.48;;;13.43;;
33160;SDS011;19522;45.656;11.302;2023-05-07T06:13:26;14.55;;;12.75;;
33160;SDS011;19522;45.656;11.302;2023-05-07T06:15:52;14.18;;;12.63;;
33160;SDS011;19522;45.656;11.302;2023-05-07T06:18:17;15.85;;;12.82;;
33160;SDS011;19522;45.656;11.302;2023-05-07T06:20:43;13.88;;;12.48;;
33160;SDS011;19522;45.656;11.302;2023-05-07T06:23:11;14.45;;;12.95;;
33160;SDS011;19522;45.656;11.302;2023-05-07T06:25:37;14.70;;;12.73;;
33160;SDS011;19522;45.656;11.302;2023-05-07T06:28:02;15.15;;;12.63;;
33160;SDS011;19522;45.656;11.302;2023-05-07T06:30:28;15.25;;;12.55;;
33160;SDS011;19522;45.656;11.302;2023-05-07T06:32:53;13.82;;;12.35;;
33160;SDS011;19522;45.656;11.302;2023-05-07T06:35:19;12.75;;;11.55;;
33160;SDS011;19522;45.656;11.302;2023-05-07T06:37:44;17.35;;;11.77;;
33160;SDS011;19522;45.656;11.302;2023-05-07T06:40:10;13.05;;;11.48;;
33160;SDS011;19522;45.656;11.302;2023-05-07T06:42:36;12.50;;;11.30;;
33160;SDS011;19522;45.656;11.302;2023-05-07T06:45:02;12.43;;;11.13;;
33160;SDS011;19522;45.656;11.302;2023-05-07T06:47:29;17.45;;;13.63;;
33160;SDS011;19522;45.656;11.302;2023-05-07T06:49:54;13.43;;;11.75;;
33160;SDS011;19522;45.656;11.302;2023-05-07T06:52:20;15.88;;;13.18;;
33160;SDS011;19522;45.656;11.302;2023-05-07T06:54:46;15.82;;;12.63;;
33160;SDS011;19522;45.656;11.302;2023-05-07T06:57:11;15.38;;;12.23;;
33160;SDS011;19522;45.656;11.302;2023-05-07T06:59:36;14.30;;;11.90;;
33160;SDS011;19522;45.656;11.302;2023-05-07T07:02:02;16.00;;;14.30;;
33160;SDS011;19522;45.656;11.302;2023-05-07T07:04:27;15.77;;;14.15;;
33160;SDS011;19522;45.656;11.302;2023-05-07T07:06:53;15.15;;;13.48;;
33160;SDS011;19522;45.656;11.302;2023-05-07T07:09:19;15.70;;;13.25;;
33160;SDS011;19522;45.656;11.302;2023-05-07T07:11:45;15.57;;;12.77;;
33160;SDS011;19522;45.656;11.302;2023-05-07T07:14:11;15.60;;;12.85;;
33160;SDS011;19522;45.656;11.302;2023-05-07T07:16:36;17.48;;;13.70;;
33160;SDS011;19522;45.656;11.302;2023-05-07T07:19:02;22.05;;;18.42;;
33160;SDS011;19522;45.656;11.302;2023-05-07T07:21:27;21.00;;;18.20;;
33160;SDS011;19522;45.656;11.302;2023-05-07T07:23:53;16.77;;;14.88;;
33160;SDS011;19522;45.656;11.302;2023-05-07T07:26:21;16.38;;;13.25;;
33160;SDS011;19522;45.656;11.302;2023-05-07T07:28:46;14.57;;;13.05;;
33160;SDS011;19522;45.656;11.302;2023-05-07T07:31:12;13.90;;;12.15;;
33160;SDS011;19522;45.656;11.302;2023-05-07T07:33:38;15.75;;;13.52;;
33160;SDS011;19522;45.656;11.302;2023-05-07T07:36:05;14.73;;;12.65;;
33160;SDS011;19522;45.656;11.302;2023-05-07T07:38:31;14.23;;;12.15;;
33160;SDS011;19522;45.656;11.302;2023-05-07T07:40:57;15.90;;;12.55;;
33160;SDS011;19522;45.656;11.302;2023-05-07T07:43:22;15.10;;;11.93;;
33160;SDS011;19522;45.656;11.302;2023-05-07T07:45:48;17.40;;;12.65;;
33160;SDS011;19522;45.656;11.302;2023-05-07T07:48:13;15.52;;;12.50;;
33160;SDS011;19522;45.656;11.302;2023-05-07T07:50:39;15.35;;;13.07;;
33160;SDS011;19522;45.656;11.302;2023-05-07T07:53:05;13.55;;;12.15;;
33160;SDS011;19522;45.656;11.302;2023-05-07T07:55:30;13.63;;;12.23;;
33160;SDS011;19522;45.656;11.302;2023-05-07T07:57:57;13.38;;;12.02;;
33160;SDS011;19522;45.656;11.302;2023-05-07T08:00:22;13.32;;;11.93;;
33160;SDS011;19522;45.656;11.302;2023-05-07T08:02:48;13.00;;;11.25;;
33160;SDS011;19522;45.656;11.302;2023-05-07T08:05:13;11.70;;;10.43;;
33160;SDS011;19522;45.656;11.302;2023-05-07T08:07:40;12.00;;;10.43;;
33160;SDS011;19522;45.656;11.302;2023-05-07T08:10:06;13.98;;;10.35;;
33160;SDS011;19522;45.656;11.302;2023-05-07T08:12:31;13.82;;;11.45;;
33160;SDS011;19522;45.656;11.302;2023-05-07T08:14:57;13.43;;;10.77;;
33160;SDS011;19522;45.656;11.302;2023-05-07T08:17:22;9.60;;;8.60;;
33160;SDS011;19522;45.656;11.302;2023-05-07T08:19:48;10.43;;;8.00;;
33160;SDS011;19522;45.656;11.302;2023-05-07T08:22:13;8.57;;;7.25;;
33160;SDS011;19522;45.656;11.302;2023-05-07T08:24:39;10.40;;;8.90;;
33160;SDS011;19522;45.656;11.302;2023-05-07T08:27:05;9.65;;;8.65;;
33160;SDS011;19522;45.656;11.302;2023-05-07T08:29:31;9.40;;;6.93;;
33160;SDS011;19522;45.656;11.302;2023-05-07T08:31:56;9.40;;;7.90;;
33160;SDS011;19522;45.656;11.302;2023-05-07T08:34:22;10.93;;;8.90;;
33160;SDS011;19522;45.656;11.302;2023-05-07T08:36:47;10.60;;;7.88;;
33160;SDS011;19522;45.656;11.302;2023-05-07T08:39:14;11.20;;;8.23;;
33160;SDS011;19522;45.656;11.302;2023-05-07T08:41:43;11.20;;;7.47;;
33160;SDS011;19522;45.656;11.302;2023-05-07T08:44:11;7.40;;;6.60;;
33160;SDS011;19522;45.656;11.302;2023-05-07T08:46:39;7.95;;;7.15;;
33160;SDS011;19522;45.656;11.302;2023-05-07T08:49:06;10.07;;;7.63;;
33160;SDS011;19522;45.656;11.302;2023-05-07T08:51:33;9.45;;;7.45;;
33160;SDS011;19522;45.656;11.302;2023-05-07T08:53:59;8.77;;;6.90;;
33160;SDS011;19522;45.656;11.302;2023-05-07T08:56:26;9.48;;;8.10;;
33160;SDS011;19522;45.656;11.302;2023-05-07T08:58:51;9.38;;;8.20;;
33160;SDS011;19522;45.656;11.302;2023-05-07T09:01:21;9.93;;;8.50;;
33160;SDS011;19522;45.656;11.302;2023-05-07T09:03:50;8.52;;;7.72;;
33160;SDS011;19522;45.656;11.302;2023-05-07T09:06:16;10.15;;;7.68;;
33160;SDS011;19522;45.656;11.302;2023-05-07T09:08:45;12.07;;;8.63;;
33160;SDS011;19522;45.656;11.302;2023-05-07T09:11:22;11.00;;;8.30;;
33160;SDS011;19522;45.656;11.302;2023-05-07T09:13:48;9.48;;;8.48;;
33160;SDS011;19522;45.656;11.302;2023-05-07T09:16:18;9.90;;;8.63;;
33160;SDS011;19522;45.656;11.302;2023-05-07T09:18:45;9.80;;;8.02;;
33160;SDS011;19522;45.656;11.302;2023-05-07T09:21:16;12.18;;;9.82;;
33160;SDS011;19522;45.656;11.302;2023-05-07T09:23:42;10.82;;;9.65;;
33160;SDS011;19522;45.656;11.302;2023-05-07T09:26:08;12.05;;;10.07;;
33160;SDS011;19522;45.656;11.302;2023-05-07T09:28:40;12.70;;;8.88;;
33160;SDS011;19522;45.656;11.302;2023-05-07T09:31:06;10.52;;;9.02;;
33160;SDS011;19522;45.656;11.302;2023-05-07T09:33:32;11.27;;;9.13;;
33160;SDS011;19522;45.656;11.302;2023-05-07T09:36:01;11.75;;;9.65;;
33160;SDS011;19522;45.656;11.302;2023-05-07T09:38:28;13.50;;;10.80;;
33160;SDS011;19522;45.656;11.302;2023-05-07T09:43:31;11.13;;;9.55;;
33160;SDS011;19522;45.656;11.302;2023-05-07T09:46:01;13.35;;;9.90;;
33160;SDS011;19522;45.656;11.302;2023-05-07T09:48:28;11.65;;;10.07;;
33160;SDS011;19522;45.656;11.302;2023-05-07T09:50:55;11.15;;;8.75;;
33160;SDS011;19522;45.656;11.302;2023-05-07T09:53:26;11.13;;;8.85;;
33160;SDS011;19522;45.656;11.302;2023-05-07T09:55:53;13.07;;;9.45;;
33160;SDS011;19522;45.656;11.302;2023-05-07T09:58:20;13.68;;;10.48;;
33160;SDS011;19522;45.656;11.302;2023-05-07T10:00:48;12.80;;;9.82;;
33160;SDS011;19522;45.656;11.302;2023-05-07T10:03:14;11.98;;;8.73;;
33160;SDS011;19522;45.656;11.302;2023-05-07T10:05:43;11.48;;;9.05;;
33160;SDS011;19522;45.656;11.302;2023-05-07T10:08:09;15.98;;;10.65;;
33160;SDS011;19522;45.656;11.302;2023-05-07T10:10:36;11.65;;;9.00;;
33160;SDS011;19522;45.656;11.302;2023-05-07T10:13:02;12.05;;;8.93;;
33160;SDS011;19522;45.656;11.302;2023-05-07T10:15:30;31.52;;;10.68;;
33160;SDS011;19522;45.656;11.302;2023-05-07T10:17:56;15.45;;;8.52;;
33160;SDS011;19522;45.656;11.302;2023-05-07T10:20:22;293.70;;;25.33;;
33160;SDS011;19522;45.656;11.302;2023-05-07T10:22:48;53.33;;;9.40;;
33160;SDS011;19522;45.656;11.302;2023-05-07T10:25:21;13.80;;;7.10;;
33160;SDS011;19522;45.656;11.302;2023-05-07T10:27:50;13.23;;;5.53;;
33160;SDS011;19522;45.656;11.302;2023-05-07T10:32:56;9.35;;;4.45;;
33160;SDS011;19522;45.656;11.302;2023-05-07T10:35:31;11.13;;;4.57;;
33160;SDS011;19522;45.656;11.302;2023-05-07T10:38:01;9.73;;;3.97;;
33160;SDS011;19522;45.656;11.302;2023-05-07T10:40:27;13.32;;;3.65;;
33160;SDS011;19522;45.656;11.302;2023-05-07T10:45:22;6.60;;;3.45;;
33160;SDS011;19522;45.656;11.302;2023-05-07T10:50:33;4.93;;;4.10;;
33160;SDS011;19522;45.656;11.302;2023-05-07T10:55:47;8.23;;;6.25;;
33160;SDS011;19522;45.656;11.302;2023-05-07T10:58:27;10.48;;;7.47;;
33160;SDS011;19522;45.656;11.302;2023-05-07T11:01:00;9.32;;;7.55;;
33160;SDS011;19522;45.656;11.302;2023-05-07T11:03:26;11.63;;;8.13;;
33160;SDS011;19522;45.656;11.302;2023-05-07T11:11:18;10.60;;;8.00;;
33160;SDS011;19522;45.656;11.302;2023-05-07T11:13:45;10.60;;;8.27;;
33160;SDS011;19522;45.656;11.302;2023-05-07T11:16:21;13.20;;;8.40;;
33160;SDS011;19522;45.656;11.302;2023-05-07T11:18:53;13.45;;;10.85;;
33160;SDS011;19522;45.656;11.302;2023-05-07T11:24:00;9.00;;;6.90;;
33160;SDS011;19522;45.656;11.302;2023-05-07T11:26:27;11.15;;;8.80;;
33160;SDS011;19522;45.656;11.302;2023-05-07T11:28:54;12.00;;;9.85;;
33160;SDS011;19522;45.656;11.302;2023-05-07T11:31:21;13.45;;;10.60;;
33160;SDS011;19522;45.656;11.302;2023-05-07T11:33:51;11.85;;;10.05;;
33160;SDS011;19522;45.656;11.302;2023-05-07T11:36:18;11.68;;;9.80;;
33160;SDS011;19522;45.656;11.302;2023-05-07T11:38:45;10.07;;;9.13;;
33160;SDS011;19522;45.656;11.302;2023-05-07T11:41:10;9.30;;;8.30;;
33160;SDS011;19522;45.656;11.302;2023-05-07T11:43:36;9.18;;;7.95;;
33160;SDS011;19522;45.656;11.302;2023-05-07T11:46:05;9.90;;;8.90;;
33160;SDS011;19522;45.656;11.302;2023-05-07T11:48:32;9.00;;;8.10;;
33160;SDS011;19522;45.656;11.302;2023-05-07T11:53:27;9.13;;;8.18;;
33160;SDS011;19522;45.656;11.302;2023-05-07T11:56:00;11.23;;;9.82;;
33160;SDS011;19522;45.656;11.302;2023-05-07T11:58:26;11.40;;;8.52;;
33160;SDS011;19522;45.656;11.302;2023-05-07T12:00:52;9.82;;;8.55;;
33160;SDS011;19522;45.656;11.302;2023-05-07T12:03:19;10.57;;;8.63;;
33160;SDS011;19522;45.656;11.302;2023-05-07T12:05:45;9.52;;;8.27;;
33160;SDS011;19522;45.656;11.302;2023-05-07T12:08:18;9.27;;;8.18;;
33160;SDS011;19522;45.656;11.302;2023-05-07T12:10:45;9.02;;;7.82;;
33160;SDS011;19522;45.656;11.302;2023-05-07T12:15:40;11.20;;;10.07;;
33160;SDS011;19522;45.656;11.302;2023-05-07T12:18:05;13.50;;;9.00;;
33160;SDS011;19522;45.656;11.302;2023-05-07T12:20:31;11.32;;;8.27;;
33160;SDS011;19522;45.656;11.302;2023-05-07T12:22:57;15.45;;;8.57;;
33160;SDS011;19522;45.656;11.302;2023-05-07T12:25:22;18.48;;;9.52;;
33160;SDS011;19522;45.656;11.302;2023-05-07T12:27:51;12.05;;;8.13;;
33160;SDS011;19522;45.656;11.302;2023-05-07T12:30:18;10.98;;;8.52;;
33160;SDS011;19522;45.656;11.302;2023-05-07T12:32:44;8.55;;;7.53;;
33160;SDS011;19522;45.656;11.302;2023-05-07T12:35:10;10.90;;;9.77;;
33160;SDS011;19522;45.656;11.302;2023-05-07T12:37:36;10.82;;;7.97;;
33160;SDS011;19522;45.656;11.302;2023-05-07T12:40:08;9.45;;;8.55;;
33160;SDS011;19522;45.656;11.302;2023-05-07T12:42:36;11.23;;;7.88;;
33160;SDS011;19522;45.656;11.302;2023-05-07T12:45:12;10.20;;;8.60;;
33160;SDS011;19522;45.656;11.302;2023-05-07T12:47:44;7.85;;;6.85;;
33160;SDS011;19522;45.656;11.302;2023-05-07T12:50:11;8.95;;;6.20;;
33160;SDS011;19522;45.656;11.302;2023-05-07T12:52:37;7.13;;;6.43;;
33160;SDS011;19522;45.656;11.302;2023-05-07T12:55:06;9.18;;;7.25;;
33160;SDS011;19522;45.656;11.302;2023-05-07T12:57:39;9.77;;;8.23;;
33160;SDS011;19522;45.656;11.302;2023-05-07T13:00:06;11.82;;;8.25;;
33160;SDS011;19522;45.656;11.302;2023-05-07T13:02:33;11.00;;;8.43;;
33160;SDS011;19522;45.656;11.302;2023-05-07T13:05:00;11.02;;;9.65;;
33160;SDS011;19522;45.656;11.302;2023-05-07T13:07:26;10.48;;;9.27;;
33160;SDS011;19522;45.656;11.302;2023-05-07T13:09:51;9.77;;;8.77;;
33160;SDS011;19522;45.656;11.302;2023-05-07T13:12:17;11.68;;;9.57;;
33160;SDS011;19522;45.656;11.302;2023-05-07T13:14:42;11.48;;;9.45;;
33160;SDS011;19522;45.656;11.302;2023-05-07T13:17:10;11.07;;;9.75;;
33160;SDS011;19522;45.656;11.302;2023-05-07T13:19:36;9.70;;;8.70;;
33160;SDS011;19522;45.656;11.302;2023-05-07T13:22:02;9.30;;;8.30;;
33160;SDS011;19522;45.656;11.302;2023-05-07T13:24:28;11.00;;;8.38;;
33160;SDS011;19522;45.656;11.302;2023-05-07T13:26:53;11.23;;;8.57;;
33160;SDS011;19522;45.656;11.302;2023-05-07T13:29:19;11.30;;;8.25;;
33160;SDS011;19522;45.656;11.302;2023-05-07T13:31:50;8.48;;;7.40;;
33160;SDS011;19522;45.656;11.302;2023-05-07T13:34:15;8.93;;;7.95;;
33160;SDS011;19522;45.656;11.302;2023-05-07T13:36:41;12.70;;;7.72;;
33160;SDS011;19522;45.656;11.302;2023-05-07T13:39:06;10.23;;;8.25;;
33160;SDS011;19522;45.656;11.302;2023-05-07T13:41:32;9.57;;;8.05;;
33160;SDS011;19522;45.656;11.302;2023-05-07T13:43:58;9.27;;;8.32;;
33160;SDS011;19522;45.656;11.302;2023-05-07T13:46:23;9.45;;;8.23;;
33160;SDS011;19522;45.656;11.302;2023-05-07T13:48:49;9.18;;;8.27;;
33160;SDS011;19522;45.656;11.302;2023-05-07T13:51:15;9.52;;;8.50;;
33160;SDS011;19522;45.656;11.302;2023-05-07T13:53:41;10.00;;;8.88;;
33160;SDS011;19522;45.656;11.302;2023-05-07T13:56:07;11.77;;;9.80;;
33160;SDS011;19522;45.656;11.302;2023-05-07T13:58:33;13.93;;;9.25;;
33160;SDS011;19522;45.656;11.302;2023-05-07T14:00:58;10.15;;;8.68;;
33160;SDS011;19522;45.656;11.302;2023-05-07T14:03:24;11.30;;;10.18;;
33160;SDS011;19522;45.656;11.302;2023-05-07T14:05:49;13.82;;;11.38;;
33160;SDS011;19522;45.656;11.302;2023-05-07T14:08:15;12.40;;;10.45;;
33160;SDS011;19522;45.656;11.302;2023-05-07T14:10:40;15.18;;;12.50;;
33160;SDS011;19522;45.656;11.302;2023-05-07T14:13:06;13.63;;;12.20;;
33160;SDS011;19522;45.656;11.302;2023-05-07T14:15:31;12.80;;;10.65;;
33160;SDS011;19522;45.656;11.302;2023-05-07T14:18:00;12.27;;;11.05;;
33160;SDS011;19522;45.656;11.302;2023-05-07T14:20:25;13.10;;;11.65;;
33160;SDS011;19522;45.656;11.302;2023-05-07T14:22:51;11.60;;;10.15;;
33160;SDS011;19522;45.656;11.302;2023-05-07T14:25:17;11.27;;;10.18;;
33160;SDS011;19522;45.656;11.302;2023-05-07T14:27:45;14.85;;;12.02;;
33160;SDS011;19522;45.656;11.302;2023-05-07T14:30:10;16.35;;;11.68;;
33160;SDS011;19522;45.656;11.302;2023-05-07T14:32:36;15.70;;;12.70;;
33160;SDS011;19522;45.656;11.302;2023-05-07T14:35:01;19.55;;;12.80;;
33160;SDS011;19522;45.656;11.302;2023-05-07T14:37:27;14.98;;;13.38;;